Humidity-temperature Sensor

Selected Measurement Type: Air Temperature

 
Air Temperature [°C]     6 entries per hour
Showing data from 12/25/2016 (00:00:00 Z) to 12/22/2016 (00:01:00 Z)
Previous Next [ Day | 3-Days | 7-Days ]
First Last
Prev [ Day | 3-Days | 7-Days ] Next
First Last

Start Time:     :
End Time:     :     
Time (in GMT) :00 :50 :40 :30 :20 :10
Previous Next [ Day | 3-Days | 7-Days ]
First Last
Prev [ Day | 3-Days | 7-Days ] Next
First Last


123 => good data
MM => data is determined as missing
-- => data not received/configured
Back to Top Back to Top
12/25/2016 00:00 to 23:10 25.22 25.29 25.25 25.18 25.21 25.18
12/24/2016 23:00 to 22:10 25.21 25.19 25.12 25.21 25.32 25.23
12/24/2016 22:00 to 21:10 25.28 25.27 25.26 25.35 25.29 25.30
12/24/2016 21:00 to 20:10 25.37 25.34 25.37 25.42 25.51 25.56
12/24/2016 20:00 to 19:10 25.54 25.53 25.62 25.63 25.54 25.47
12/24/2016 19:00 to 18:10 25.57 25.51 25.55 25.52 25.45 25.53
12/24/2016 18:00 to 17:10 25.61 25.42 25.52 25.44 25.44 25.45
12/24/2016 17:00 to 16:10 25.49 25.51 25.43 25.46 25.36 25.35
12/24/2016 16:00 to 15:10 25.35 25.24 25.20 25.17 25.05 25.02
12/24/2016 15:00 to 14:10 25.03 25.05 25.06 25.07 25.08 25.16
12/24/2016 14:00 to 13:10 25.24 25.19 25.21 25.19 25.15 25.19
12/24/2016 13:00 to 12:10 25.10 25.15 25.05 25.17 25.19 25.24
12/24/2016 12:00 to 11:10 25.29 25.38 25.26 25.22 25.28 25.28
12/24/2016 11:00 to 10:10 25.25 25.28 25.36 25.28 25.36 25.39
12/24/2016 10:00 to 9:10 25.27 25.29 25.34 25.28 25.26 25.30
12/24/2016 09:00 to 8:10 25.29 25.30 25.31 25.29 25.33 25.40
12/24/2016 08:00 to 7:10 25.40 25.39 25.44 25.37 25.40 25.43
12/24/2016 07:00 to 6:10 25.45 25.43 25.40 25.44 25.38 25.40
12/24/2016 06:00 to 5:10 25.46 25.52 25.60 25.56 25.55 25.58
12/24/2016 05:00 to 4:10 25.47 25.55 25.54 25.28 25.43 25.42
12/24/2016 04:00 to 3:10 25.41 25.39 25.38 25.34 25.32 25.34
12/24/2016 03:00 to 2:10 25.80 25.94 25.99 26.05 26.06 26.08
12/24/2016 02:00 to 1:10 26.03 25.96 25.96 25.78 25.87 26.07
12/24/2016 01:00 to 0:10 26.00 25.93 25.92 25.90 25.84 25.85
12/24/2016 00:00 to 23:10 25.85 25.85 25.84 25.82 25.93 25.96
12/23/2016 23:00 to 22:10 25.86 25.70 25.68 25.62 25.60 25.58
12/23/2016 22:00 to 21:10 25.51 25.52 25.44 25.59 25.64 25.46
12/23/2016 21:00 to 20:10 25.15 24.87 24.86 25.02 25.11 25.12
12/23/2016 20:00 to 19:10 24.77 24.56 25.24 25.61 25.66 25.66
12/23/2016 19:00 to 18:10 25.63 25.61 25.60 25.50 25.49 25.52
12/23/2016 18:00 to 17:10 25.48 25.46 25.21 24.75 24.57 25.27
12/23/2016 17:00 to 16:10 25.30 25.50 25.47 25.50 25.51 25.27
12/23/2016 16:00 to 15:10 25.07 25.52 25.34 25.35 25.38 25.39
12/23/2016 15:00 to 14:10 25.33 25.21 25.14 25.32 25.23 25.26
12/23/2016 14:00 to 13:10 25.24 25.12 25.11 25.18 25.26 25.15
12/23/2016 13:00 to 12:10 25.18 25.19 25.16 25.11 25.11 25.10
12/23/2016 12:00 to 11:10 25.13 25.06 25.17 25.06 24.82 24.76
12/23/2016 11:00 to 10:10 25.29 25.40 25.30 25.42 25.48 25.41
12/23/2016 10:00 to 9:10 25.41 25.41 25.62 25.50 25.72 25.70
12/23/2016 09:00 to 8:10 25.54 25.40 25.48 25.52 25.56 25.54
12/23/2016 08:00 to 7:10 25.53 25.48 25.53 25.50 25.59 25.45
12/23/2016 07:00 to 6:10 25.43 25.44 25.50 25.44 25.52 25.44
12/23/2016 06:00 to 5:10 25.52 25.49 25.51 25.50 25.53 25.42
12/23/2016 05:00 to 4:10 25.40 25.45 25.47 25.46 25.54 25.43
12/23/2016 04:00 to 3:10 25.53 25.52 25.49 25.48 25.55 25.66
12/23/2016 03:00 to 2:10 25.74 25.87 25.98 26.05 26.12 26.11
12/23/2016 02:00 to 1:10 26.14 26.10 26.10 26.02 26.04 25.96
12/23/2016 01:00 to 0:10 26.01 25.78 25.73 25.71 25.75 25.74
12/23/2016 00:00 to 23:10 25.75 25.59 25.55 25.52 25.60 25.45
12/22/2016 23:00 to 22:10 25.51 25.62 25.57 25.42 25.42 25.39
12/22/2016 22:00 to 21:10 25.51 25.33 25.36 25.37 25.35 25.43
12/22/2016 21:00 to 20:10 25.50 25.38 25.45 25.47 25.40 25.34
12/22/2016 20:00 to 19:10 25.37 25.33 25.39 25.31 25.40 25.35
12/22/2016 19:00 to 18:10 25.33 25.38 25.37 25.35 25.39 25.33
12/22/2016 18:00 to 17:10 25.28 25.29 25.35 25.37 25.33 25.26
12/22/2016 17:00 to 16:10 25.29 25.36 25.33 25.28 25.35 25.30
12/22/2016 16:00 to 15:10 25.29 25.34 25.39 25.26 25.16 25.04
12/22/2016 15:00 to 14:10 25.05 25.04 25.04 25.02 25.02 24.89
12/22/2016 14:00 to 13:10 24.96 24.98 24.98 25.00 24.82 24.89
12/22/2016 13:00 to 12:10 24.89 24.84 24.95 24.98 24.88 24.88
12/22/2016 12:00 to 11:10 24.89 25.04 25.00 24.97 24.95 24.96
12/22/2016 11:00 to 10:10 25.01 25.02 25.05 25.04 24.93 24.94
12/22/2016 10:00 to 9:10 24.87 24.88 24.87 24.90 24.93 24.92
12/22/2016 09:00 to 8:10 24.92 24.95 25.11 25.08 25.14 25.07
12/22/2016 08:00 to 7:10 25.08 25.05 24.96 25.00 25.10 25.15
12/22/2016 07:00 to 6:10 25.16 25.13 25.01 25.06 25.11 25.17
12/22/2016 06:00 to 5:10 25.06 25.06 25.10 25.14 25.08 25.10
12/22/2016 05:00 to 4:10 25.19 25.11 25.10 25.17 25.04 25.07
12/22/2016 04:00 to 3:10 25.16 25.08 25.15 25.26 25.21 25.33
12/22/2016 03:00 to 2:10 25.49 25.64 25.63 25.80 25.75 25.70
12/22/2016 02:00 to 1:10 25.79 25.75 25.82 25.76 25.66 25.73
12/22/2016 01:00 to 0:10 25.69 25.62 25.61 25.61 25.50 25.50